createdAt,value
2023-04-02T00:09:38.692Z,98599.25
2023-04-02T00:20:20.607Z,98614.28
2023-04-02T00:31:12.667Z,98620.19
2023-04-02T00:42:07.361Z,98626.94
2023-04-02T00:54:24.988Z,98640.22
2023-04-02T01:00:53.273Z,98631.94
2023-04-02T01:11:56.791Z,98641.72
2023-04-02T01:23:06.204Z,98641.81
2023-04-02T01:38:27.778Z,98638.06
2023-04-02T01:48:54.919Z,98645.13
2023-04-02T01:59:46.388Z,98656.94
2023-04-02T02:11:52.470Z,98671.47
2023-04-02T02:18:25.086Z,98664.41
2023-04-02T02:29:35.617Z,98674.72
2023-04-02T02:40:39.769Z,98667.16
2023-04-02T02:56:04.744Z,98685.94
2023-04-02T03:06:53.209Z,98708.69
2023-04-02T03:41:52.104Z,98767.44
2023-04-02T04:02:08.349Z,98796.50
2023-04-02T04:08:45.056Z,98796.03
2023-04-02T04:24:17.668Z,98846.09
2023-04-02T04:31:00.878Z,98854.28
2023-04-02T04:50:46.409Z,98910.44
2023-04-02T05:01:48.823Z,98920.22
2023-04-02T05:17:01.536Z,98960.09
2023-04-02T05:28:13.583Z,98977.50
2023-04-02T05:38:56.947Z,98998.97
2023-04-02T06:08:28.230Z,99057.44
2023-04-02T06:14:56.050Z,99061.63
2023-04-02T06:25:56.237Z,99102.06
2023-04-02T06:32:27.801Z,99104.06
2023-04-02T06:38:59.432Z,99124.03
2023-04-02T06:58:21.417Z,99168.81
2023-04-02T07:04:49.045Z,99180.91
2023-04-02T07:26:55.672Z,99206.56
2023-04-02T07:42:11.443Z,99242.25
2023-04-02T07:53:04.140Z,99254.00
2023-04-02T08:03:56.950Z,99276.03
2023-04-02T08:10:24.590Z,99293.03
2023-04-02T08:16:56.661Z,99306.66
2023-04-02T08:23:25.087Z,99295.91
2023-04-02T08:34:16.610Z,99321.88
2023-04-02T08:45:25.406Z,99321.81
2023-04-02T09:09:14.992Z,99373.78
2023-04-02T09:15:44.265Z,99384.09
2023-04-02T09:26:48.257Z,99393.44
2023-04-02T09:33:15.956Z,99388.72
2023-04-02T09:39:44.081Z,99413.72
2023-04-02T09:46:26.866Z,99418.53
2023-04-02T09:53:19.349Z,99447.97
2023-04-02T10:00:35.260Z,99452.81
2023-04-02T10:07:34.922Z,99454.16
2023-04-02T10:18:25.417Z,99456.59
2023-04-02T10:29:45.265Z,99467.31
2023-04-02T10:49:38.731Z,99492.44
2023-04-02T11:00:35.297Z,99500.31
2023-04-02T11:07:15.108Z,99514.19
2023-04-02T11:22:29.266Z,99521.56
2023-04-02T11:29:06.523Z,99546.94
2023-04-02T11:39:59.606Z,99541.28
2023-04-02T11:46:40.642Z,99569.41
2023-04-02T11:57:41.485Z,99567.78
2023-04-02T12:17:36.989Z,99582.34
2023-04-02T12:24:06.093Z,99598.38
2023-04-02T12:34:58.433Z,99604.88
2023-04-02T12:45:53.545Z,99634.41
2023-04-02T13:02:21.579Z,99648.28
2023-04-02T13:14:35.998Z,99657.06
2023-04-02T13:21:28.065Z,99645.66
2023-04-02T13:27:57.877Z,99657.13
2023-04-02T13:34:24.858Z,99669.47
2023-04-02T13:49:44.486Z,99687.53
2023-04-02T13:56:11.287Z,99682.38
2023-04-02T14:12:02.980Z,99701.34
2023-04-02T14:22:50.087Z,99709.13
2023-04-02T14:38:01.614Z,99730.59
2023-04-02T14:57:19.151Z,99745.50
2023-04-02T15:12:29.487Z,99759.06
2023-04-02T15:28:03.926Z,99785.53
2023-04-02T15:39:14.356Z,99792.72
2023-04-02T15:43:22.234Z,99795.38
2023-04-02T16:07:23.049Z,99840.31
2023-04-02T16:13:49.452Z,99837.97
2023-04-02T16:20:32.268Z,99843.06
2023-04-02T16:35:53.579Z,99868.81
2023-04-02T16:46:45.098Z,99880.25
2023-04-02T16:57:41.009Z,99887.88
2023-04-02T17:13:14.544Z,99905.38
2023-04-02T17:24:17.737Z,99916.31
2023-04-02T17:43:34.227Z,99930.84
2023-04-02T17:50:08.153Z,99947.13
2023-04-02T18:17:16.195Z,99966.44
2023-04-02T18:24:31.933Z,99974.56
2023-04-02T18:31:14.140Z,99972.31
2023-04-02T18:37:44.099Z,99992.81
2023-04-02T18:53:16.121Z,100002.47
2023-04-02T19:08:48.283Z,100024.56
2023-04-02T19:36:03.218Z,100051.69
2023-04-02T19:46:53.230Z,100040.25
2023-04-02T19:53:20.505Z,100059.75
2023-04-02T20:04:11.409Z,100060.06
2023-04-02T20:19:04.603Z,100074.25
2023-04-02T20:30:20.800Z,100084.84
2023-04-02T20:41:11.530Z,100097.84
2023-04-02T20:52:02.609Z,100091.69
2023-04-02T21:07:15.756Z,100126.47
2023-04-02T21:14:56.727Z,100128.72
2023-04-02T21:21:23.428Z,100127.44
2023-04-02T21:29:06.239Z,100147.25
2023-04-02T21:40:09.051Z,100154.31
2023-04-02T21:55:33.435Z,100159.56
2023-04-02T22:06:27.826Z,100156.25
2023-04-02T22:26:06.653Z,100185.59
2023-04-02T22:32:33.457Z,100172.97
2023-04-02T22:39:01.668Z,100179.88
2023-04-02T22:45:28.740Z,100174.78
2023-04-02T22:51:56.609Z,100187.09
2023-04-02T22:58:27.117Z,100187.22
2023-04-02T23:04:55.559Z,100186.47
2023-04-02T23:11:26.544Z,100184.56
2023-04-02T23:22:17.990Z,100190.41
2023-04-02T23:28:45.036Z,100202.34
2023-04-02T23:35:12.834Z,100199.03
2023-04-02T23:41:42.918Z,100196.63
2023-04-02T23:48:10.743Z,100199.81
2023-04-02T23:54:38.891Z,100196.56
